sensor_id;sensor_type;location;lat;lon;timestamp;P1;durP1;ratioP1;P2;durP2;ratioP2
2934;SDS011;2462;51.456;7.248;2023-03-23T00:01:47;2.13;;;1.93;;
2934;SDS011;2462;51.456;7.248;2023-03-23T00:04:16;3.20;;;1.70;;
2934;SDS011;2462;51.456;7.248;2023-03-23T00:06:42;1.90;;;1.70;;
2934;SDS011;2462;51.456;7.248;2023-03-23T00:09:10;3.93;;;2.00;;
2934;SDS011;2462;51.456;7.248;2023-03-23T00:11:37;1.80;;;1.70;;
2934;SDS011;2462;51.456;7.248;2023-03-23T00:14:04;2.73;;;2.20;;
2934;SDS011;2462;51.456;7.248;2023-03-23T00:16:30;1.67;;;1.57;;
2934;SDS011;2462;51.456;7.248;2023-03-23T00:18:59;2.50;;;1.60;;
2934;SDS011;2462;51.456;7.248;2023-03-23T00:21:30;4.03;;;1.70;;
2934;SDS011;2462;51.456;7.248;2023-03-23T00:23:58;2.93;;;1.90;;
2934;SDS011;2462;51.456;7.248;2023-03-23T00:26:25;1.67;;;1.57;;
2934;SDS011;2462;51.456;7.248;2023-03-23T00:28:53;1.80;;;1.70;;
2934;SDS011;2462;51.456;7.248;2023-03-23T00:31:19;1.70;;;1.60;;
2934;SDS011;2462;51.456;7.248;2023-03-23T00:33:44;2.30;;;1.57;;
2934;SDS011;2462;51.456;7.248;2023-03-23T00:36:10;1.90;;;1.70;;
2934;SDS011;2462;51.456;7.248;2023-03-23T00:38:37;3.20;;;1.57;;
2934;SDS011;2462;51.456;7.248;2023-03-23T00:41:05;2.30;;;1.90;;
2934;SDS011;2462;51.456;7.248;2023-03-23T00:43:31;2.60;;;2.00;;
2934;SDS011;2462;51.456;7.248;2023-03-23T00:46:00;2.63;;;2.10;;
2934;SDS011;2462;51.456;7.248;2023-03-23T00:48:27;1.87;;;1.67;;
2934;SDS011;2462;51.456;7.248;2023-03-23T00:50:54;2.80;;;1.70;;
2934;SDS011;2462;51.456;7.248;2023-03-23T00:53:20;1.87;;;1.43;;
2934;SDS011;2462;51.456;7.248;2023-03-23T00:55:47;2.10;;;1.70;;
2934;SDS011;2462;51.456;7.248;2023-03-23T00:58:14;2.50;;;1.47;;
2934;SDS011;2462;51.456;7.248;2023-03-23T01:00:40;2.50;;;1.43;;
2934;SDS011;2462;51.456;7.248;2023-03-23T01:03:06;2.03;;;1.50;;
2934;SDS011;2462;51.456;7.248;2023-03-23T01:05:34;1.50;;;1.40;;
2934;SDS011;2462;51.456;7.248;2023-03-23T01:08:00;2.67;;;2.00;;
2934;SDS011;2462;51.456;7.248;2023-03-23T01:10:27;1.73;;;1.60;;
2934;SDS011;2462;51.456;7.248;2023-03-23T01:12:53;1.77;;;1.67;;
2934;SDS011;2462;51.456;7.248;2023-03-23T01:15:19;1.83;;;1.40;;
2934;SDS011;2462;51.456;7.248;2023-03-23T01:17:45;1.73;;;1.63;;
2934;SDS011;2462;51.456;7.248;2023-03-23T01:20:12;2.37;;;1.50;;
2934;SDS011;2462;51.456;7.248;2023-03-23T01:22:40;1.77;;;1.30;;
2934;SDS011;2462;51.456;7.248;2023-03-23T01:25:07;2.30;;;2.10;;
2934;SDS011;2462;51.456;7.248;2023-03-23T01:27:34;1.53;;;1.43;;
2934;SDS011;2462;51.456;7.248;2023-03-23T01:29:59;4.03;;;2.10;;
2934;SDS011;2462;51.456;7.248;2023-03-23T01:32:25;1.43;;;1.30;;
2934;SDS011;2462;51.456;7.248;2023-03-23T01:34:51;2.80;;;1.73;;
2934;SDS011;2462;51.456;7.248;2023-03-23T01:37:16;2.33;;;1.47;;
2934;SDS011;2462;51.456;7.248;2023-03-23T01:39:42;1.60;;;1.40;;
2934;SDS011;2462;51.456;7.248;2023-03-23T01:42:08;1.90;;;1.80;;
2934;SDS011;2462;51.456;7.248;2023-03-23T01:47:00;2.43;;;1.63;;
2934;SDS011;2462;51.456;7.248;2023-03-23T01:49:27;1.93;;;1.73;;
2934;SDS011;2462;51.456;7.248;2023-03-23T01:52:00;1.30;;;1.20;;
2934;SDS011;2462;51.456;7.248;2023-03-23T01:54:31;6.27;;;2.10;;
2934;SDS011;2462;51.456;7.248;2023-03-23T01:57:04;2.97;;;2.20;;
2934;SDS011;2462;51.456;7.248;2023-03-23T01:59:36;2.37;;;1.40;;
2934;SDS011;2462;51.456;7.248;2023-03-23T02:02:02;3.63;;;1.80;;
2934;SDS011;2462;51.456;7.248;2023-03-23T02:04:28;2.90;;;1.73;;
2934;SDS011;2462;51.456;7.248;2023-03-23T02:06:54;1.50;;;1.20;;
2934;SDS011;2462;51.456;7.248;2023-03-23T02:09:22;1.83;;;1.50;;
2934;SDS011;2462;51.456;7.248;2023-03-23T02:11:51;1.77;;;1.67;;
2934;SDS011;2462;51.456;7.248;2023-03-23T02:14:19;1.80;;;1.67;;
2934;SDS011;2462;51.456;7.248;2023-03-23T02:16:48;1.33;;;1.23;;
2934;SDS011;2462;51.456;7.248;2023-03-23T02:19:33;1.97;;;1.57;;
2934;SDS011;2462;51.456;7.248;2023-03-23T02:22:18;1.57;;;1.40;;
2934;SDS011;2462;51.456;7.248;2023-03-23T02:36:40;1.77;;;1.60;;
2934;SDS011;2462;51.456;7.248;2023-03-23T02:42:00;1.90;;;1.70;;
2934;SDS011;2462;51.456;7.248;2023-03-23T02:44:29;1.87;;;1.47;;
2934;SDS011;2462;51.456;7.248;2023-03-23T02:46:58;1.83;;;1.50;;
2934;SDS011;2462;51.456;7.248;2023-03-23T02:49:26;1.97;;;1.70;;
2934;SDS011;2462;51.456;7.248;2023-03-23T02:51:55;2.10;;;1.50;;
2934;SDS011;2462;51.456;7.248;2023-03-23T02:54:23;1.83;;;1.70;;
2934;SDS011;2462;51.456;7.248;2023-03-23T02:56:51;1.97;;;1.60;;
2934;SDS011;2462;51.456;7.248;2023-03-23T02:59:18;1.40;;;1.20;;
2934;SDS011;2462;51.456;7.248;2023-03-23T03:01:46;2.70;;;1.70;;
2934;SDS011;2462;51.456;7.248;2023-03-23T03:04:17;1.43;;;1.20;;
2934;SDS011;2462;51.456;7.248;2023-03-23T03:09:41;1.83;;;1.40;;
2934;SDS011;2462;51.456;7.248;2023-03-23T03:12:24;1.50;;;1.40;;
2934;SDS011;2462;51.456;7.248;2023-03-23T03:17:50;1.97;;;1.30;;
2934;SDS011;2462;51.456;7.248;2023-03-23T03:20:20;1.77;;;1.60;;
2934;SDS011;2462;51.456;7.248;2023-03-23T03:22:48;3.00;;;1.80;;
2934;SDS011;2462;51.456;7.248;2023-03-23T03:25:17;2.10;;;1.90;;
2934;SDS011;2462;51.456;7.248;2023-03-23T03:27:44;1.40;;;1.30;;
2934;SDS011;2462;51.456;7.248;2023-03-23T03:30:14;1.40;;;1.10;;
2934;SDS011;2462;51.456;7.248;2023-03-23T03:32:43;2.37;;;1.73;;
2934;SDS011;2462;51.456;7.248;2023-03-23T03:35:18;1.43;;;1.33;;
2934;SDS011;2462;51.456;7.248;2023-03-23T03:37:46;2.13;;;1.40;;
2934;SDS011;2462;51.456;7.248;2023-03-23T03:40:14;2.23;;;1.60;;
2934;SDS011;2462;51.456;7.248;2023-03-23T03:42:42;1.77;;;1.43;;
2934;SDS011;2462;51.456;7.248;2023-03-23T03:45:10;1.43;;;1.33;;
2934;SDS011;2462;51.456;7.248;2023-03-23T03:47:40;1.53;;;1.37;;
2934;SDS011;2462;51.456;7.248;2023-03-23T03:50:07;1.50;;;1.30;;
2934;SDS011;2462;51.456;7.248;2023-03-23T03:52:33;1.70;;;1.60;;
2934;SDS011;2462;51.456;7.248;2023-03-23T03:54:59;3.03;;;2.03;;
2934;SDS011;2462;51.456;7.248;2023-03-23T03:57:25;1.40;;;1.30;;
2934;SDS011;2462;51.456;7.248;2023-03-23T03:59:51;1.60;;;1.50;;
2934;SDS011;2462;51.456;7.248;2023-03-23T04:02:17;1.50;;;1.30;;
2934;SDS011;2462;51.456;7.248;2023-03-23T04:04:48;1.70;;;1.37;;
2934;SDS011;2462;51.456;7.248;2023-03-23T04:07:14;1.83;;;1.73;;
2934;SDS011;2462;51.456;7.248;2023-03-23T04:09:41;1.50;;;1.40;;
2934;SDS011;2462;51.456;7.248;2023-03-23T04:12:08;2.50;;;1.60;;
2934;SDS011;2462;51.456;7.248;2023-03-23T04:14:34;2.70;;;1.63;;
2934;SDS011;2462;51.456;7.248;2023-03-23T04:17:00;1.90;;;1.50;;
2934;SDS011;2462;51.456;7.248;2023-03-23T04:19:25;1.50;;;1.40;;
2934;SDS011;2462;51.456;7.248;2023-03-23T04:21:53;2.57;;;1.80;;
2934;SDS011;2462;51.456;7.248;2023-03-23T04:24:20;1.40;;;1.30;;
2934;SDS011;2462;51.456;7.248;2023-03-23T04:26:49;2.20;;;1.40;;
2934;SDS011;2462;51.456;7.248;2023-03-23T04:29:16;1.70;;;1.17;;
2934;SDS011;2462;51.456;7.248;2023-03-23T04:31:43;1.67;;;1.37;;
2934;SDS011;2462;51.456;7.248;2023-03-23T04:34:10;1.40;;;1.30;;
2934;SDS011;2462;51.456;7.248;2023-03-23T04:36:38;1.70;;;1.33;;
2934;SDS011;2462;51.456;7.248;2023-03-23T04:39:04;1.60;;;1.50;;
2934;SDS011;2462;51.456;7.248;2023-03-23T04:41:34;1.73;;;1.60;;
2934;SDS011;2462;51.456;7.248;2023-03-23T04:44:00;2.17;;;1.40;;
2934;SDS011;2462;51.456;7.248;2023-03-23T04:46:27;1.50;;;1.40;;
2934;SDS011;2462;51.456;7.248;2023-03-23T04:48:56;1.37;;;1.27;;
2934;SDS011;2462;51.456;7.248;2023-03-23T04:51:27;1.93;;;1.43;;
2934;SDS011;2462;51.456;7.248;2023-03-23T04:53:53;1.77;;;1.40;;
2934;SDS011;2462;51.456;7.248;2023-03-23T04:56:19;1.20;;;1.10;;
2934;SDS011;2462;51.456;7.248;2023-03-23T04:58:45;1.43;;;1.33;;
2934;SDS011;2462;51.456;7.248;2023-03-23T05:01:11;2.00;;;1.60;;
2934;SDS011;2462;51.456;7.248;2023-03-23T05:03:42;1.70;;;1.10;;
2934;SDS011;2462;51.456;7.248;2023-03-23T05:06:09;1.77;;;1.57;;
2934;SDS011;2462;51.456;7.248;2023-03-23T05:08:34;1.40;;;1.30;;
2934;SDS011;2462;51.456;7.248;2023-03-23T05:11:03;1.50;;;1.40;;
2934;SDS011;2462;51.456;7.248;2023-03-23T05:13:30;1.40;;;1.30;;
2934;SDS011;2462;51.456;7.248;2023-03-23T05:15:56;1.47;;;1.37;;
2934;SDS011;2462;51.456;7.248;2023-03-23T05:18:23;1.50;;;1.40;;
2934;SDS011;2462;51.456;7.248;2023-03-23T05:20:48;1.50;;;1.40;;
2934;SDS011;2462;51.456;7.248;2023-03-23T05:23:17;2.00;;;1.57;;
2934;SDS011;2462;51.456;7.248;2023-03-23T05:25:51;1.30;;;1.20;;
2934;SDS011;2462;51.456;7.248;2023-03-23T05:28:18;2.40;;;1.50;;
2934;SDS011;2462;51.456;7.248;2023-03-23T05:30:43;1.40;;;1.30;;
2934;SDS011;2462;51.456;7.248;2023-03-23T05:33:09;1.30;;;1.10;;
2934;SDS011;2462;51.456;7.248;2023-03-23T05:35:34;2.60;;;1.63;;
2934;SDS011;2462;51.456;7.248;2023-03-23T05:38:01;1.17;;;1.07;;
2934;SDS011;2462;51.456;7.248;2023-03-23T05:40:26;1.27;;;1.17;;
2934;SDS011;2462;51.456;7.248;2023-03-23T05:42:52;2.10;;;1.60;;
2934;SDS011;2462;51.456;7.248;2023-03-23T05:45:20;3.03;;;1.53;;
2934;SDS011;2462;51.456;7.248;2023-03-23T05:47:46;1.93;;;1.73;;
2934;SDS011;2462;51.456;7.248;2023-03-23T05:50:12;1.60;;;1.20;;
2934;SDS011;2462;51.456;7.248;2023-03-23T05:52:38;1.37;;;1.20;;
2934;SDS011;2462;51.456;7.248;2023-03-23T05:55:04;2.23;;;1.57;;
2934;SDS011;2462;51.456;7.248;2023-03-23T05:57:30;1.40;;;1.30;;
2934;SDS011;2462;51.456;7.248;2023-03-23T05:59:56;1.83;;;1.40;;
2934;SDS011;2462;51.456;7.248;2023-03-23T06:02:23;1.93;;;1.53;;
2934;SDS011;2462;51.456;7.248;2023-03-23T06:04:50;1.30;;;1.20;;
2934;SDS011;2462;51.456;7.248;2023-03-23T06:07:15;1.50;;;1.40;;
2934;SDS011;2462;51.456;7.248;2023-03-23T06:09:41;3.20;;;1.57;;
2934;SDS011;2462;51.456;7.248;2023-03-23T06:12:08;3.00;;;1.60;;
2934;SDS011;2462;51.456;7.248;2023-03-23T06:14:34;2.90;;;1.40;;
2934;SDS011;2462;51.456;7.248;2023-03-23T06:17:01;1.50;;;1.40;;
2934;SDS011;2462;51.456;7.248;2023-03-23T06:19:27;1.53;;;1.43;;
2934;SDS011;2462;51.456;7.248;2023-03-23T06:21:54;1.43;;;1.30;;
2934;SDS011;2462;51.456;7.248;2023-03-23T06:24:20;1.87;;;1.27;;
2934;SDS011;2462;51.456;7.248;2023-03-23T06:26:46;1.57;;;1.47;;
2934;SDS011;2462;51.456;7.248;2023-03-23T06:29:12;1.57;;;1.47;;
2934;SDS011;2462;51.456;7.248;2023-03-23T06:31:42;1.97;;;1.37;;
2934;SDS011;2462;51.456;7.248;2023-03-23T06:34:12;1.70;;;1.60;;
2934;SDS011;2462;51.456;7.248;2023-03-23T06:36:38;1.77;;;1.67;;
2934;SDS011;2462;51.456;7.248;2023-03-23T06:39:04;2.17;;;1.73;;
2934;SDS011;2462;51.456;7.248;2023-03-23T06:41:30;1.50;;;1.40;;
2934;SDS011;2462;51.456;7.248;2023-03-23T06:43:57;1.60;;;1.40;;
2934;SDS011;2462;51.456;7.248;2023-03-23T06:46:23;1.63;;;1.50;;
2934;SDS011;2462;51.456;7.248;2023-03-23T06:48:49;1.50;;;1.20;;
2934;SDS011;2462;51.456;7.248;2023-03-23T06:51:15;1.43;;;1.33;;
2934;SDS011;2462;51.456;7.248;2023-03-23T06:53:41;2.30;;;1.83;;
2934;SDS011;2462;51.456;7.248;2023-03-23T06:56:07;1.70;;;1.37;;
2934;SDS011;2462;51.456;7.248;2023-03-23T06:58:33;1.43;;;1.17;;
2934;SDS011;2462;51.456;7.248;2023-03-23T07:00:59;1.33;;;1.23;;
2934;SDS011;2462;51.456;7.248;2023-03-23T07:03:25;1.70;;;1.33;;
2934;SDS011;2462;51.456;7.248;2023-03-23T07:05:52;1.70;;;1.60;;
2934;SDS011;2462;51.456;7.248;2023-03-23T07:08:19;1.50;;;1.33;;
2934;SDS011;2462;51.456;7.248;2023-03-23T07:10:45;1.97;;;1.10;;
2934;SDS011;2462;51.456;7.248;2023-03-23T07:13:11;1.43;;;1.33;;
2934;SDS011;2462;51.456;7.248;2023-03-23T07:15:38;1.30;;;1.20;;
2934;SDS011;2462;51.456;7.248;2023-03-23T07:18:04;1.50;;;1.40;;
2934;SDS011;2462;51.456;7.248;2023-03-23T07:20:30;1.33;;;1.23;;
2934;SDS011;2462;51.456;7.248;2023-03-23T07:22:56;1.30;;;1.10;;
2934;SDS011;2462;51.456;7.248;2023-03-23T07:25:22;1.70;;;1.60;;
2934;SDS011;2462;51.456;7.248;2023-03-23T07:27:48;1.47;;;1.30;;
2934;SDS011;2462;51.456;7.248;2023-03-23T07:30:14;2.27;;;1.53;;
2934;SDS011;2462;51.456;7.248;2023-03-23T07:32:40;1.70;;;1.53;;
2934;SDS011;2462;51.456;7.248;2023-03-23T07:35:07;1.60;;;1.50;;
2934;SDS011;2462;51.456;7.248;2023-03-23T07:37:34;2.10;;;1.23;;
2934;SDS011;2462;51.456;7.248;2023-03-23T07:40:00;2.00;;;1.67;;
2934;SDS011;2462;51.456;7.248;2023-03-23T07:42:39;1.50;;;1.37;;
2934;SDS011;2462;51.456;7.248;2023-03-23T07:45:05;1.90;;;1.67;;
2934;SDS011;2462;51.456;7.248;2023-03-23T07:47:31;1.30;;;1.10;;
2934;SDS011;2462;51.456;7.248;2023-03-23T07:49:57;1.40;;;1.30;;
2934;SDS011;2462;51.456;7.248;2023-03-23T07:52:23;1.50;;;1.40;;
2934;SDS011;2462;51.456;7.248;2023-03-23T07:54:50;5.33;;;1.33;;
2934;SDS011;2462;51.456;7.248;2023-03-23T07:57:16;2.07;;;1.33;;
2934;SDS011;2462;51.456;7.248;2023-03-23T07:59:42;1.40;;;1.30;;
2934;SDS011;2462;51.456;7.248;2023-03-23T08:02:08;1.90;;;1.23;;
2934;SDS011;2462;51.456;7.248;2023-03-23T08:04:35;2.43;;;1.40;;
2934;SDS011;2462;51.456;7.248;2023-03-23T08:07:02;1.90;;;1.17;;
2934;SDS011;2462;51.456;7.248;2023-03-23T08:09:29;1.97;;;1.27;;
2934;SDS011;2462;51.456;7.248;2023-03-23T08:11:55;1.50;;;1.20;;
2934;SDS011;2462;51.456;7.248;2023-03-23T08:14:21;2.10;;;1.40;;
2934;SDS011;2462;51.456;7.248;2023-03-23T08:16:51;1.30;;;1.20;;
2934;SDS011;2462;51.456;7.248;2023-03-23T08:19:17;1.30;;;1.20;;
2934;SDS011;2462;51.456;7.248;2023-03-23T08:21:43;1.90;;;1.53;;
2934;SDS011;2462;51.456;7.248;2023-03-23T08:24:09;1.40;;;1.00;;
2934;SDS011;2462;51.456;7.248;2023-03-23T08:26:36;2.50;;;1.30;;
2934;SDS011;2462;51.456;7.248;2023-03-23T08:29:02;3.07;;;1.40;;
2934;SDS011;2462;51.456;7.248;2023-03-23T08:31:29;2.50;;;1.20;;
2934;SDS011;2462;51.456;7.248;2023-03-23T08:33:55;1.83;;;1.10;;
2934;SDS011;2462;51.456;7.248;2023-03-23T08:36:22;1.80;;;1.37;;
2934;SDS011;2462;51.456;7.248;2023-03-23T08:38:48;4.20;;;1.37;;
2934;SDS011;2462;51.456;7.248;2023-03-23T08:41:17;1.80;;;1.40;;
2934;SDS011;2462;51.456;7.248;2023-03-23T08:43:43;2.83;;;1.90;;
2934;SDS011;2462;51.456;7.248;2023-03-23T08:46:09;1.80;;;1.37;;
2934;SDS011;2462;51.456;7.248;2023-03-23T08:48:36;3.20;;;1.53;;
2934;SDS011;2462;51.456;7.248;2023-03-23T08:51:03;1.93;;;1.30;;
2934;SDS011;2462;51.456;7.248;2023-03-23T08:53:30;2.30;;;1.40;;
2934;SDS011;2462;51.456;7.248;2023-03-23T08:56:02;5.90;;;1.13;;
2934;SDS011;2462;51.456;7.248;2023-03-23T08:58:28;3.10;;;1.53;;
2934;SDS011;2462;51.456;7.248;2023-03-23T09:00:54;1.93;;;1.40;;
2934;SDS011;2462;51.456;7.248;2023-03-23T09:03:20;1.27;;;1.10;;
2934;SDS011;2462;51.456;7.248;2023-03-23T09:05:46;1.60;;;1.23;;
2934;SDS011;2462;51.456;7.248;2023-03-23T09:08:13;1.97;;;1.10;;
2934;SDS011;2462;51.456;7.248;2023-03-23T09:10:39;1.23;;;1.13;;
2934;SDS011;2462;51.456;7.248;2023-03-23T09:13:05;1.77;;;1.20;;
2934;SDS011;2462;51.456;7.248;2023-03-23T09:15:31;1.53;;;1.10;;
2934;SDS011;2462;51.456;7.248;2023-03-23T09:17:58;1.73;;;1.30;;
2934;SDS011;2462;51.456;7.248;2023-03-23T09:20:26;2.80;;;1.10;;
2934;SDS011;2462;51.456;7.248;2023-03-23T09:22:53;1.83;;;1.40;;
2934;SDS011;2462;51.456;7.248;2023-03-23T09:25:21;2.80;;;1.33;;
2934;SDS011;2462;51.456;7.248;2023-03-23T09:27:49;2.30;;;1.20;;
2934;SDS011;2462;51.456;7.248;2023-03-23T09:30:21;1.30;;;1.10;;
2934;SDS011;2462;51.456;7.248;2023-03-23T09:32:48;1.67;;;1.20;;
2934;SDS011;2462;51.456;7.248;2023-03-23T09:35:14;5.70;;;1.60;;
2934;SDS011;2462;51.456;7.248;2023-03-23T09:37:41;1.60;;;1.43;;
2934;SDS011;2462;51.456;7.248;2023-03-23T09:40:14;1.83;;;1.00;;
2934;SDS011;2462;51.456;7.248;2023-03-23T09:45:30;2.50;;;1.47;;
2934;SDS011;2462;51.456;7.248;2023-03-23T09:48:15;2.10;;;1.30;;
2934;SDS011;2462;51.456;7.248;2023-03-23T09:50:44;2.53;;;1.20;;
2934;SDS011;2462;51.456;7.248;2023-03-23T09:53:16;2.73;;;1.30;;
2934;SDS011;2462;51.456;7.248;2023-03-23T09:55:44;4.83;;;1.30;;
2934;SDS011;2462;51.456;7.248;2023-03-23T10:00:46;2.47;;;1.50;;
2934;SDS011;2462;51.456;7.248;2023-03-23T10:05:42;4.80;;;1.40;;
2934;SDS011;2462;51.456;7.248;2023-03-23T10:08:31;1.60;;;1.30;;
2934;SDS011;2462;51.456;7.248;2023-03-23T10:11:04;1.80;;;1.10;;
2934;SDS011;2462;51.456;7.248;2023-03-23T10:16:24;2.63;;;1.17;;
2934;SDS011;2462;51.456;7.248;2023-03-23T10:21:19;1.67;;;1.17;;
2934;SDS011;2462;51.456;7.248;2023-03-23T10:23:49;1.47;;;1.17;;
2934;SDS011;2462;51.456;7.248;2023-03-23T10:28:54;1.67;;;1.30;;
2934;SDS011;2462;51.456;7.248;2023-03-23T10:31:23;2.50;;;1.00;;
2934;SDS011;2462;51.456;7.248;2023-03-23T10:33:51;1.90;;;1.13;;
2934;SDS011;2462;51.456;7.248;2023-03-23T10:38:51;2.63;;;1.30;;
2934;SDS011;2462;51.456;7.248;2023-03-23T10:41:18;1.30;;;1.20;;
2934;SDS011;2462;51.456;7.248;2023-03-23T10:43:46;1.73;;;1.03;;
2934;SDS011;2462;51.456;7.248;2023-03-23T10:49:02;2.07;;;1.43;;
2934;SDS011;2462;51.456;7.248;2023-03-23T10:51:32;2.90;;;1.33;;
2934;SDS011;2462;51.456;7.248;2023-03-23T10:54:00;1.40;;;1.00;;
2934;SDS011;2462;51.456;7.248;2023-03-23T10:56:28;2.80;;;1.30;;
2934;SDS011;2462;51.456;7.248;2023-03-23T10:58:54;1.60;;;1.50;;
2934;SDS011;2462;51.456;7.248;2023-03-23T11:01:28;2.70;;;1.20;;
2934;SDS011;2462;51.456;7.248;2023-03-23T11:03:55;1.90;;;1.17;;
2934;SDS011;2462;51.456;7.248;2023-03-23T11:06:25;1.40;;;1.10;;
2934;SDS011;2462;51.456;7.248;2023-03-23T11:08:54;3.60;;;1.30;;
2934;SDS011;2462;51.456;7.248;2023-03-23T11:11:28;2.70;;;1.20;;
2934;SDS011;2462;51.456;7.248;2023-03-23T11:14:02;4.30;;;1.10;;
2934;SDS011;2462;51.456;7.248;2023-03-23T11:16:29;5.97;;;1.67;;
2934;SDS011;2462;51.456;7.248;2023-03-23T11:18:57;4.03;;;1.30;;
2934;SDS011;2462;51.456;7.248;2023-03-23T11:21:24;2.63;;;1.53;;
2934;SDS011;2462;51.456;7.248;2023-03-23T11:23:53;1.77;;;1.33;;
2934;SDS011;2462;51.456;7.248;2023-03-23T11:26:21;2.90;;;1.33;;
2934;SDS011;2462;51.456;7.248;2023-03-23T11:29:04;2.13;;;1.07;;
2934;SDS011;2462;51.456;7.248;2023-03-23T11:31:34;6.40;;;1.57;;
2934;SDS011;2462;51.456;7.248;2023-03-23T11:34:02;2.80;;;1.73;;
2934;SDS011;2462;51.456;7.248;2023-03-23T11:36:36;2.80;;;2.23;;
2934;SDS011;2462;51.456;7.248;2023-03-23T11:39:03;3.23;;;2.40;;
2934;SDS011;2462;51.456;7.248;2023-03-23T11:41:45;4.93;;;2.73;;
2934;SDS011;2462;51.456;7.248;2023-03-23T11:44:11;2.17;;;1.97;;
2934;SDS011;2462;51.456;7.248;2023-03-23T11:46:40;4.53;;;2.10;;
2934;SDS011;2462;51.456;7.248;2023-03-23T11:49:14;3.40;;;2.30;;
2934;SDS011;2462;51.456;7.248;2023-03-23T11:51:51;4.90;;;2.10;;
2934;SDS011;2462;51.456;7.248;2023-03-23T11:54:28;6.43;;;2.20;;
2934;SDS011;2462;51.456;7.248;2023-03-23T11:56:54;2.80;;;1.97;;
2934;SDS011;2462;51.456;7.248;2023-03-23T11:59:28;3.00;;;1.70;;
2934;SDS011;2462;51.456;7.248;2023-03-23T12:01:58;2.30;;;1.87;;
2934;SDS011;2462;51.456;7.248;2023-03-23T12:09:51;7.07;;;3.27;;
2934;SDS011;2462;51.456;7.248;2023-03-23T12:12:23;3.67;;;2.97;;
2934;SDS011;2462;51.456;7.248;2023-03-23T12:20:03;6.53;;;2.53;;
2934;SDS011;2462;51.456;7.248;2023-03-23T12:27:57;3.63;;;2.40;;
2934;SDS011;2462;51.456;7.248;2023-03-23T12:30:39;4.10;;;2.20;;
2934;SDS011;2462;51.456;7.248;2023-03-23T12:33:13;2.50;;;2.00;;
2934;SDS011;2462;51.456;7.248;2023-03-23T12:35:59;3.80;;;2.33;;
2934;SDS011;2462;51.456;7.248;2023-03-23T12:38:41;3.90;;;2.00;;
2934;SDS011;2462;51.456;7.248;2023-03-23T12:41:14;3.43;;;2.20;;
2934;SDS011;2462;51.456;7.248;2023-03-23T12:48:51;2.17;;;1.70;;
2934;SDS011;2462;51.456;7.248;2023-03-23T12:53:46;3.97;;;2.07;;
2934;SDS011;2462;51.456;7.248;2023-03-23T12:58:44;3.30;;;1.50;;
2934;SDS011;2462;51.456;7.248;2023-03-23T13:03:59;5.50;;;2.20;;
2934;SDS011;2462;51.456;7.248;2023-03-23T13:09:14;3.77;;;2.43;;
2934;SDS011;2462;51.456;7.248;2023-03-23T13:11:42;4.17;;;2.83;;
2934;SDS011;2462;51.456;7.248;2023-03-23T13:16:37;2.70;;;2.50;;
2934;SDS011;2462;51.456;7.248;2023-03-23T13:19:11;3.57;;;2.90;;
2934;SDS011;2462;51.456;7.248;2023-03-23T13:24:15;2.33;;;2.13;;
2934;SDS011;2462;51.456;7.248;2023-03-23T13:26:43;2.67;;;2.43;;
2934;SDS011;2462;51.456;7.248;2023-03-23T13:29:13;3.40;;;2.33;;
2934;SDS011;2462;51.456;7.248;2023-03-23T13:31:40;2.97;;;2.30;;
2934;SDS011;2462;51.456;7.248;2023-03-23T13:36:39;3.40;;;2.67;;
2934;SDS011;2462;51.456;7.248;2023-03-23T13:39:16;2.50;;;2.30;;
2934;SDS011;2462;51.456;7.248;2023-03-23T13:41:58;3.30;;;2.40;;
2934;SDS011;2462;51.456;7.248;2023-03-23T13:44:25;2.70;;;2.30;;
2934;SDS011;2462;51.456;7.248;2023-03-23T13:47:05;3.20;;;2.47;;
2934;SDS011;2462;51.456;7.248;2023-03-23T13:49:32;2.40;;;2.17;;
2934;SDS011;2462;51.456;7.248;2023-03-23T13:52:00;3.33;;;2.50;;
2934;SDS011;2462;51.456;7.248;2023-03-23T13:54:40;2.50;;;1.70;;
2934;SDS011;2462;51.456;7.248;2023-03-23T13:57:32;2.30;;;2.10;;
2934;SDS011;2462;51.456;7.248;2023-03-23T13:59:59;2.93;;;2.20;;
2934;SDS011;2462;51.456;7.248;2023-03-23T14:02:36;2.17;;;1.90;;
2934;SDS011;2462;51.456;7.248;2023-03-23T14:06:03;2.27;;;1.67;;
2934;SDS011;2462;51.456;7.248;2023-03-23T14:08:00;2.30;;;2.10;;
2934;SDS011;2462;51.456;7.248;2023-03-23T14:10:40;2.40;;;1.83;;
2934;SDS011;2462;51.456;7.248;2023-03-23T14:13:15;2.20;;;1.90;;
2934;SDS011;2462;51.456;7.248;2023-03-23T14:15:43;2.93;;;1.73;;
2934;SDS011;2462;51.456;7.248;2023-03-23T14:18:13;2.63;;;1.90;;
2934;SDS011;2462;51.456;7.248;2023-03-23T14:20:40;2.17;;;1.80;;
2934;SDS011;2462;51.456;7.248;2023-03-23T14:23:12;2.40;;;2.20;;
2934;SDS011;2462;51.456;7.248;2023-03-23T14:25:40;3.77;;;2.60;;
2934;SDS011;2462;51.456;7.248;2023-03-23T14:28:15;3.50;;;3.20;;
2934;SDS011;2462;51.456;7.248;2023-03-23T14:30:42;3.53;;;2.77;;
2934;SDS011;2462;51.456;7.248;2023-03-23T14:33:09;3.60;;;2.53;;
2934;SDS011;2462;51.456;7.248;2023-03-23T14:35:37;2.77;;;2.23;;
2934;SDS011;2462;51.456;7.248;2023-03-23T14:38:03;2.90;;;2.10;;
2934;SDS011;2462;51.456;7.248;2023-03-23T14:40:30;3.60;;;2.60;;
2934;SDS011;2462;51.456;7.248;2023-03-23T14:42:56;4.80;;;2.43;;
2934;SDS011;2462;51.456;7.248;2023-03-23T14:45:23;3.00;;;2.53;;
2934;SDS011;2462;51.456;7.248;2023-03-23T14:47:57;2.23;;;2.03;;
2934;SDS011;2462;51.456;7.248;2023-03-23T14:52:53;4.03;;;2.40;;
2934;SDS011;2462;51.456;7.248;2023-03-23T14:55:22;2.40;;;2.07;;
2934;SDS011;2462;51.456;7.248;2023-03-23T14:57:48;3.13;;;2.23;;
2934;SDS011;2462;51.456;7.248;2023-03-23T15:02:45;2.27;;;2.07;;
2934;SDS011;2462;51.456;7.248;2023-03-23T15:05:17;2.10;;;1.90;;
2934;SDS011;2462;51.456;7.248;2023-03-23T15:07:45;2.77;;;2.20;;
2934;SDS011;2462;51.456;7.248;2023-03-23T15:10:14;2.47;;;2.27;;
2934;SDS011;2462;51.456;7.248;2023-03-23T15:12:43;2.90;;;2.37;;
2934;SDS011;2462;51.456;7.248;2023-03-23T15:15:16;2.23;;;1.87;;
2934;SDS011;2462;51.456;7.248;2023-03-23T15:17:45;2.57;;;1.90;;
2934;SDS011;2462;51.456;7.248;2023-03-23T15:22:45;3.80;;;1.90;;
2934;SDS011;2462;51.456;7.248;2023-03-23T15:25:17;2.43;;;2.10;;
2934;SDS011;2462;51.456;7.248;2023-03-23T15:27:44;2.10;;;1.90;;
2934;SDS011;2462;51.456;7.248;2023-03-23T15:32:50;3.53;;;1.97;;
2934;SDS011;2462;51.456;7.248;2023-03-23T15:35:18;2.23;;;1.90;;
2934;SDS011;2462;51.456;7.248;2023-03-23T15:37:45;2.50;;;1.97;;
2934;SDS011;2462;51.456;7.248;2023-03-23T15:40:21;2.03;;;1.83;;
2934;SDS011;2462;51.456;7.248;2023-03-23T15:42:48;1.90;;;1.70;;
2934;SDS011;2462;51.456;7.248;2023-03-23T15:50:14;1.80;;;1.70;;
2934;SDS011;2462;51.456;7.248;2023-03-23T15:52:40;1.67;;;1.57;;
2934;SDS011;2462;51.456;7.248;2023-03-23T15:55:24;2.83;;;2.37;;
2934;SDS011;2462;51.456;7.248;2023-03-23T15:57:50;3.33;;;1.70;;
2934;SDS011;2462;51.456;7.248;2023-03-23T16:00:17;2.47;;;1.70;;
2934;SDS011;2462;51.456;7.248;2023-03-23T16:02:44;2.30;;;2.10;;
2934;SDS011;2462;51.456;7.248;2023-03-23T16:05:11;2.80;;;1.83;;
2934;SDS011;2462;51.456;7.248;2023-03-23T16:07:37;2.13;;;1.93;;
2934;SDS011;2462;51.456;7.248;2023-03-23T16:10:04;2.10;;;1.87;;
2934;SDS011;2462;51.456;7.248;2023-03-23T16:12:31;2.00;;;1.80;;
2934;SDS011;2462;51.456;7.248;2023-03-23T16:14:57;8.60;;;4.57;;
2934;SDS011;2462;51.456;7.248;2023-03-23T16:17:23;1.70;;;1.60;;
2934;SDS011;2462;51.456;7.248;2023-03-23T16:19:49;2.03;;;1.53;;
2934;SDS011;2462;51.456;7.248;2023-03-23T16:22:16;2.47;;;1.67;;
2934;SDS011;2462;51.456;7.248;2023-03-23T16:24:42;3.53;;;2.00;;
2934;SDS011;2462;51.456;7.248;2023-03-23T16:27:12;2.03;;;1.50;;
2934;SDS011;2462;51.456;7.248;2023-03-23T16:29:38;1.93;;;1.53;;
2934;SDS011;2462;51.456;7.248;2023-03-23T16:32:04;1.97;;;1.53;;
2934;SDS011;2462;51.456;7.248;2023-03-23T16:34:30;2.60;;;2.07;;
2934;SDS011;2462;51.456;7.248;2023-03-23T16:36:58;2.33;;;1.70;;
2934;SDS011;2462;51.456;7.248;2023-03-23T16:39:24;1.93;;;1.60;;
2934;SDS011;2462;51.456;7.248;2023-03-23T16:41:50;2.10;;;1.87;;
2934;SDS011;2462;51.456;7.248;2023-03-23T16:44:16;1.63;;;1.53;;
2934;SDS011;2462;51.456;7.248;2023-03-23T16:46:42;2.13;;;1.60;;
2934;SDS011;2462;51.456;7.248;2023-03-23T16:49:08;2.03;;;1.50;;
2934;SDS011;2462;51.456;7.248;2023-03-23T16:51:34;1.97;;;1.50;;
2934;SDS011;2462;51.456;7.248;2023-03-23T16:54:00;2.70;;;2.00;;
2934;SDS011;2462;51.456;7.248;2023-03-23T16:56:26;2.10;;;1.90;;
2934;SDS011;2462;51.456;7.248;2023-03-23T16:58:52;2.60;;;1.70;;
2934;SDS011;2462;51.456;7.248;2023-03-23T17:01:18;2.63;;;1.70;;